Time;durP1;ratioP1;P1;durP2;ratioP2;P2;SDS_P1;SDS_P2;PMS_P1;PMS_P2;Temp;Humidity;BMP_temperature;BMP_pressure;BME280_temperature;BME280_humidity;BME280_pressure;Samples;Min_cycle;Max_cycle;Signal;HPM_P1;HPM_P2
2020/12/30 00:01:01;;;;;;;11.77;7.25;;;-0.40;95.40;;;;;;5068483;28;20501;-69
2020/12/30 00:03:31;;;;;;;11.38;6.78;;;-0.40;95.40;;;;;;5070982;28;20789;-69
2020/12/30 00:05:59;;;;;;;9.88;6.32;;;-0.40;95.30;;;;;;5068333;28;20867;-69
2020/12/30 00:08:26;;;;;;;10.10;6.70;;;-0.50;95.50;;;;;;5070908;28;20676;-69
2020/12/30 00:10:54;;;;;;;10.45;6.20;;;-0.50;95.40;;;;;;5070813;28;20400;-69
2020/12/30 00:13:21;;;;;;;9.02;5.85;;;-0.40;95.40;;;;;;5067440;28;20482;-69
2020/12/30 00:15:48;;;;;;;10.47;5.87;;;-0.50;95.50;;;;;;5071759;28;20404;-69
2020/12/30 00:18:16;;;;;;;8.82;5.88;;;-0.40;95.40;;;;;;5068740;28;20497;-69
2020/12/30 00:20:43;;;;;;;10.50;6.25;;;-0.40;95.30;;;;;;5071592;28;20895;-69
2020/12/30 00:23:09;;;;;;;10.77;6.20;;;-0.40;95.20;;;;;;5068602;28;20431;-69
2020/12/30 00:25:37;;;;;;;10.82;5.85;;;-0.40;95.40;;;;;;5070929;28;20493;-69
2020/12/30 00:28:04;;;;;;;9.07;5.32;;;-0.40;95.40;;;;;;5067280;28;20455;-69
2020/12/30 00:30:30;;;;;;;10.60;5.63;;;-0.40;95.50;;;;;;5071677;28;20407;-69
2020/12/30 00:32:57;;;;;;;10.80;5.82;;;-0.50;95.10;;;;;;5067200;28;20435;-69
2020/12/30 00:35:25;;;;;;;9.15;5.50;;;-0.50;95.20;;;;;;5070767;28;20420;-69
2020/12/30 00:37:52;;;;;;;8.55;5.40;;;-0.50;95.20;;;;;;5068129;28;20408;-69
2020/12/30 00:40:18;;;;;;;9.30;5.90;;;-0.50;95.20;;;;;;5071236;28;20820;-69
2020/12/30 00:42:47;;;;;;;9.97;5.50;;;-0.50;95.30;;;;;;5071134;28;20512;-69
2020/12/30 00:45:13;;;;;;;9.55;5.13;;;-0.50;95.20;;;;;;5067100;28;20412;-69
2020/12/30 00:47:40;;;;;;;8.80;5.70;;;-0.50;95.20;;;;;;5071091;28;20400;-69
2020/12/30 00:50:09;;;;;;;9.85;5.80;;;-0.50;95.30;;;;;;5067433;28;20504;-69
2020/12/30 00:52:36;;;;;;;10.33;5.40;;;-0.60;95.10;;;;;;5071230;28;20886;-69
2020/12/30 00:55:05;;;;;;;12.07;5.78;;;-0.60;94.90;;;;;;5068245;28;20484;-69
2020/12/30 00:57:31;;;;;;;9.57;5.80;;;-0.60;95.00;;;;;;5070022;28;20473;-69
2020/12/30 00:59:57;;;;;;;10.82;5.40;;;-0.60;95.00;;;;;;5066405;28;21196;-69
2020/12/30 01:02:24;;;;;;;8.57;5.40;;;-0.60;95.00;;;;;;5070717;28;20848;-69
2020/12/30 01:04:50;;;;;;;9.88;5.43;;;-0.60;95.20;;;;;;5067582;28;20450;-69
2020/12/30 01:07:19;;;;;;;9.02;5.82;;;-0.60;95.20;;;;;;5069672;28;20399;-69
2020/12/30 01:09:45;;;;;;;10.37;5.57;;;-0.60;95.10;;;;;;5066344;28;20498;-69
2020/12/30 01:12:12;;;;;;;9.77;5.65;;;-0.60;95.20;;;;;;5069706;28;20408;-69
2020/12/30 01:14:41;;;;;;;9.35;5.40;;;-0.70;95.20;;;;;;5069827;28;20411;-69
2020/12/30 01:17:07;;;;;;;10.48;5.50;;;-0.70;95.40;;;;;;5067236;28;20899;-69
2020/12/30 01:19:34;;;;;;;10.15;5.65;;;-0.70;95.30;;;;;;5069480;28;20836;-69
2020/12/30 01:22:00;;;;;;;8.65;5.30;;;-0.70;95.20;;;;;;5066498;28;20408;-69
2020/12/30 01:24:26;;;;;;;10.18;5.97;;;-0.70;95.20;;;;;;5070185;28;20486;-69
2020/12/30 01:26:53;;;;;;;9.88;5.78;;;-0.70;95.30;;;;;;5067352;28;20465;-69
2020/12/30 01:29:20;;;;;;;10.07;5.50;;;-0.70;95.30;;;;;;5069953;28;20419;-69
2020/12/30 01:31:54;;;;;;;8.55;5.38;;;-0.70;95.40;;;;;;5066566;28;21594;-69
2020/12/30 01:34:21;;;;;;;8.13;5.45;;;-0.60;95.60;;;;;;5070605;28;20434;-69
2020/12/30 01:36:54;;;;;;;8.27;5.20;;;-0.50;95.40;;;;;;5067164;28;20403;-69
2020/12/30 01:39:21;;;;;;;9.52;5.00;;;-0.50;95.10;;;;;;5069341;28;20914;-69
2020/12/30 01:41:48;;;;;;;9.98;5.30;;;-0.50;95.00;;;;;;5066976;28;20403;-69
2020/12/30 01:44:14;;;;;;;14.52;6.55;;;-0.50;95.00;;;;;;5070314;28;20496;-69
2020/12/30 01:46:48;;;;;;;21.63;6.67;;;-0.50;95.10;;;;;;5067464;28;20452;-69
2020/12/30 01:49:25;;;;;;;18.52;6.63;;;-0.40;95.10;;;;;;5069302;28;20457;-69
2020/12/30 01:51:52;;;;;;;15.43;6.50;;;-0.40;95.00;;;;;;5051549;28;20396;-69
2020/12/30 01:54:20;;;;;;;15.18;6.40;;;-0.40;95.00;;;;;;5069276;28;20481;-69
2020/12/30 01:56:47;;;;;;;16.85;5.80;;;-0.50;95.10;;;;;;5070282;28;20462;-69
2020/12/30 01:59:18;;;;;;;10.05;4.93;;;-0.50;95.30;;;;;;5065837;28;20488;-69
2020/12/30 02:02:07;;;;;;;9.90;4.53;;;-0.40;95.40;;;;;;5069415;28;20403;-69
2020/12/30 02:04:42;;;;;;;7.15;3.90;;;-0.40;95.10;;;;;;5065342;28;20949;-69
2020/12/30 02:07:08;;;;;;;5.85;3.42;;;-0.20;95.00;;;;;;5069833;28;20400;-69
2020/12/30 02:09:34;;;;;;;7.00;3.63;;;0.00;94.50;;;;;;5065800;28;20401;-69
2020/12/30 02:12:01;;;;;;;5.35;3.30;;;0.10;94.20;;;;;;5069479;28;20396;-69
2020/12/30 02:14:27;;;;;;;5.30;2.90;;;0.00;94.00;;;;;;5066411;28;20411;-69
2020/12/30 02:16:56;;;;;;;5.07;2.95;;;-0.10;94.20;;;;;;5069233;28;20446;-69
2020/12/30 02:19:23;;;;;;;5.18;3.20;;;-0.10;94.30;;;;;;5066413;28;20759;-69
2020/12/30 02:21:52;;;;;;;6.13;3.08;;;0.00;94.50;;;;;;5069804;28;20411;-69
2020/12/30 02:24:29;;;;;;;5.57;2.90;;;-0.10;94.40;;;;;;5069194;28;20517;-69
2020/12/30 02:26:56;;;;;;;6.10;3.20;;;-0.10;94.50;;;;;;5073882;28;20774;-69
2020/12/30 02:29:27;;;;;;;6.83;3.77;;;-0.20;94.50;;;;;;5069873;28;20423;-69
2020/12/30 02:31:54;;;;;;;7.50;3.58;;;-0.20;94.60;;;;;;5073781;28;20423;-69
2020/12/30 02:34:21;;;;;;;5.70;3.40;;;-0.20;94.90;;;;;;5071339;28;20422;-69
2020/12/30 02:36:48;;;;;;;5.78;3.58;;;-0.20;94.90;;;;;;5052400;28;20447;-69
2020/12/30 02:39:15;;;;;;;6.07;3.60;;;-0.30;95.00;;;;;;5053376;28;20784;-69
2020/12/30 02:41:43;;;;;;;7.13;3.60;;;-0.30;95.10;;;;;;5066978;28;20431;-69
2020/12/30 02:44:12;;;;;;;6.30;3.53;;;-0.30;95.20;;;;;;5072357;28;20467;-69
2020/12/30 02:46:38;;;;;;;6.50;3.50;;;-0.30;95.10;;;;;;5068926;28;20459;-69
2020/12/30 02:49:07;;;;;;;5.90;3.55;;;-0.30;95.10;;;;;;5072860;28;20400;-69
2020/12/30 02:51:34;;;;;;;5.83;3.40;;;-0.30;95.00;;;;;;5069930;28;20490;-69
2020/12/30 02:54:03;;;;;;;6.38;3.63;;;-0.30;95.10;;;;;;5073186;28;20852;-69
2020/12/30 02:56:32;;;;;;;5.35;3.58;;;-0.40;95.10;;;;;;5069309;28;20435;-69
2020/12/30 02:59:01;;;;;;;5.28;3.30;;;-0.30;95.10;;;;;;5072967;28;20407;-69
2020/12/30 03:01:27;;;;;;;5.93;3.70;;;-0.30;95.10;;;;;;5069880;28;20835;-69
2020/12/30 03:03:53;;;;;;;6.68;3.70;;;-0.20;95.00;;;;;;5073066;28;20455;-70
2020/12/30 03:06:24;;;;;;;6.10;3.42;;;-0.20;94.70;;;;;;5070087;28;20469;-69
2020/12/30 03:08:51;;;;;;;6.40;3.45;;;-0.30;94.80;;;;;;5073327;28;20432;-69
2020/12/30 03:11:17;;;;;;;5.43;3.70;;;-0.30;94.80;;;;;;5071832;28;20469;-69
2020/12/30 03:13:44;;;;;;;5.38;3.83;;;-0.30;94.80;;;;;;5069523;28;20438;-68
2020/12/30 03:16:10;;;;;;;8.35;4.28;;;-0.30;94.80;;;;;;5073223;28;20768;-68
2020/12/30 03:18:37;;;;;;;7.00;4.32;;;-0.30;94.80;;;;;;5068418;28;20407;-68
2020/12/30 03:21:03;;;;;;;8.90;4.60;;;-0.30;94.70;;;;;;5072927;28;20427;-68
2020/12/30 03:23:32;;;;;;;9.30;5.22;;;-0.30;94.90;;;;;;5080580;28;20531;-68
2020/12/30 03:25:58;;;;;;;7.93;4.63;;;-0.30;95.00;;;;;;5092890;28;20508;-68
2020/12/30 03:28:26;;;;;;;9.55;4.30;;;-0.30;95.00;;;;;;5078201;28;20879;-68
2020/12/30 03:30:53;;;;;;;6.93;4.10;;;-0.40;95.10;;;;;;5071838;28;20406;-68
2020/12/30 03:33:19;;;;;;;7.45;4.03;;;-0.40;95.20;;;;;;5069279;28;20416;-68
2020/12/30 03:35:46;;;;;;;11.27;3.90;;;-0.30;95.30;;;;;;5070983;28;20724;-68
2020/12/30 03:38:14;;;;;;;6.90;3.80;;;-0.40;95.10;;;;;;5069430;28;20473;-68
2020/12/30 03:40:41;;;;;;;7.35;3.47;;;-0.30;95.40;;;;;;5072346;28;20457;-68
2020/12/30 03:43:07;;;;;;;8.07;3.45;;;-0.30;95.00;;;;;;5072423;28;20620;-68
2020/12/30 03:45:35;;;;;;;8.47;3.10;;;-0.30;95.20;;;;;;5070466;28;20478;-68
2020/12/30 03:48:02;;;;;;;5.72;3.10;;;-0.40;95.30;;;;;;5072282;28;20486;-68
2020/12/30 03:50:28;;;;;;;6.65;3.42;;;-0.40;95.00;;;;;;5067740;28;20400;-68
2020/12/30 03:52:57;;;;;;;4.93;3.00;;;-0.40;95.20;;;;;;5071724;28;20555;-69
2020/12/30 03:55:24;;;;;;;5.53;3.15;;;-0.50;95.30;;;;;;5068896;28;20447;-68
2020/12/30 03:57:50;;;;;;;6.00;3.17;;;-0.50;95.40;;;;;;5072280;28;20412;-68
2020/12/30 04:00:17;;;;;;;6.05;3.00;;;-0.50;95.30;;;;;;5068718;28;20473;-68
2020/12/30 04:02:43;;;;;;;8.07;3.50;;;-0.50;95.30;;;;;;5072013;28;20750;-68
2020/12/30 04:05:09;;;;;;;4.85;3.15;;;-0.50;95.40;;;;;;5069049;28;20415;-69
2020/12/30 04:07:36;;;;;;;11.90;4.53;;;-0.50;95.50;;;;;;5072037;28;20403;-68
2020/12/30 04:10:03;;;;;;;9.73;4.35;;;-0.50;95.50;;;;;;5068335;28;20484;-68
2020/12/30 04:12:32;;;;;;;11.52;5.50;;;-0.50;95.30;;;;;;5071714;28;20449;-68
2020/12/30 04:14:58;;;;;;;12.40;6.17;;;-0.50;95.30;;;;;;5068551;28;20528;-68
2020/12/30 04:17:25;;;;;;;10.80;5.70;;;-0.50;95.40;;;;;;5069401;28;20484;-68
2020/12/30 04:19:51;;;;;;;9.38;4.93;;;-0.50;95.10;;;;;;5071437;28;20856;-68
2020/12/30 04:22:17;;;;;;;9.98;4.70;;;-0.50;95.20;;;;;;5066861;28;20442;-68
2020/12/30 04:24:46;;;;;;;9.27;4.40;;;-0.50;95.10;;;;;;5070810;28;20455;-68
2020/12/30 04:27:13;;;;;;;6.80;3.70;;;-0.50;95.10;;;;;;5067363;28;20427;-69
2020/12/30 04:29:39;;;;;;;9.10;4.55;;;-0.50;95.20;;;;;;5070552;28;20471;-68
2020/12/30 04:32:05;;;;;;;10.10;4.50;;;-0.50;95.30;;;;;;5078632;28;20463;-68
2020/12/30 04:34:32;;;;;;;8.13;3.75;;;-0.40;95.20;;;;;;5091832;28;20837;-68
2020/12/30 04:37:01;;;;;;;9.55;3.95;;;-0.40;95.30;;;;;;5080330;28;20447;-68
2020/12/30 04:39:27;;;;;;;9.50;4.53;;;-0.40;95.30;;;;;;5070176;28;20910;-68
2020/12/30 04:41:58;;;;;;;8.98;4.55;;;-0.40;95.20;;;;;;5068204;28;20872;-68
2020/12/30 04:44:29;;;;;;;7.05;3.88;;;-0.40;95.20;;;;;;5070885;28;20819;-68
2020/12/30 04:46:58;;;;;;;8.02;4.03;;;-0.40;95.20;;;;;;5065714;28;21221;-68
2020/12/30 04:49:25;;;;;;;9.17;4.07;;;-0.40;95.20;;;;;;5071377;28;20408;-68
2020/12/30 04:51:53;;;;;;;6.78;3.97;;;-0.40;95.20;;;;;;5070080;28;20465;-68
2020/12/30 04:54:23;;;;;;;9.40;4.47;;;-0.40;95.10;;;;;;5067559;28;20485;-68
2020/12/30 04:57:22;;;;;;;7.18;3.90;;;-0.40;95.20;;;;;;5070880;28;20411;-68
2020/12/30 04:59:53;;;;;;;6.68;3.75;;;-0.40;95.20;;;;;;5069005;28;20927;-68
2020/12/30 05:02:39;;;;;;;7.28;3.67;;;-0.40;95.00;;;;;;5070867;28;20791;-68
2020/12/30 05:05:05;;;;;;;7.90;3.90;;;-0.40;95.20;;;;;;5048268;28;20841;-68
2020/12/30 05:07:35;;;;;;;7.00;3.10;;;-0.40;95.20;;;;;;5050013;28;20458;-68
2020/12/30 05:10:02;;;;;;;6.32;3.42;;;-0.30;95.20;;;;;;5080673;28;20402;-69
2020/12/30 05:12:31;;;;;;;6.47;3.28;;;-0.20;95.20;;;;;;5091005;28;20459;-68
2020/12/30 05:14:57;;;;;;;6.15;3.40;;;-0.20;95.00;;;;;;5072954;28;20481;-68
2020/12/30 05:17:23;;;;;;;7.20;3.60;;;-0.10;95.00;;;;;;5070736;28;20400;-68
2020/12/30 05:19:53;;;;;;;6.72;3.65;;;-0.20;94.80;;;;;;5067527;28;20453;-68
2020/12/30 05:22:20;;;;;;;7.03;3.30;;;-0.10;94.80;;;;;;5070663;28;20438;-68
2020/12/30 05:24:47;;;;;;;5.35;2.88;;;-0.10;94.80;;;;;;5074540;28;20422;-69
2020/12/30 05:27:18;;;;;;;4.60;2.40;;;0.00;94.80;;;;;;5089558;28;20459;-69
2020/12/30 05:29:49;;;;;;;3.67;2.23;;;0.00;94.60;;;;;;5086493;28;20418;-68
2020/12/30 05:32:17;;;;;;;4.70;2.33;;;0.10;94.70;;;;;;5090564;28;20865;-69
2020/12/30 05:34:43;;;;;;;3.40;2.20;;;0.10;94.50;;;;;;5083885;28;20512;-69
2020/12/30 05:37:17;;;;;;;3.45;2.00;;;0.20;94.50;;;;;;5053145;28;20425;-68
2020/12/30 05:39:44;;;;;;;4.22;2.00;;;0.20;94.30;;;;;;5049668;28;20564;-68
2020/12/30 05:42:14;;;;;;;4.57;2.00;;;0.30;94.20;;;;;;5067908;28;20442;-68
2020/12/30 05:44:47;;;;;;;4.63;2.43;;;0.40;94.10;;;;;;5069430;28;20431;-68
2020/12/30 05:47:16;;;;;;;2.80;2.10;;;0.40;94.00;;;;;;5066906;28;20416;-69
2020/12/30 05:49:47;;;;;;;5.57;3.00;;;0.40;93.90;;;;;;5070008;28;20844;-68
2020/12/30 05:52:16;;;;;;;4.80;2.40;;;0.40;94.00;;;;;;5066941;28;20400;-68
2020/12/30 05:54:48;;;;;;;4.23;2.37;;;0.40;94.10;;;;;;5070381;28;20419;-68
2020/12/30 05:57:28;;;;;;;5.70;2.60;;;0.40;93.90;;;;;;5066425;28;20481;-68
2020/12/30 06:00:08;;;;;;;4.28;2.63;;;0.40;94.20;;;;;;5074122;28;20407;-69
2020/12/30 06:02:42;;;;;;;4.28;2.78;;;0.30;94.40;;;;;;5070785;28;20494;-68
2020/12/30 06:05:10;;;;;;;4.60;2.90;;;0.40;94.40;;;;;;5074267;28;20419;-68
2020/12/30 06:07:38;;;;;;;6.18;2.70;;;0.40;94.40;;;;;;5071490;28;20403;-69
2020/12/30 06:10:10;;;;;;;5.65;3.35;;;0.40;94.40;;;;;;5073804;28;20395;-68
2020/12/30 06:12:51;;;;;;;5.77;3.37;;;0.40;94.30;;;;;;5070888;28;20407;-68
2020/12/30 06:15:22;;;;;;;7.40;3.50;;;0.40;94.20;;;;;;5073643;28;20930;-69
2020/12/30 06:17:59;;;;;;;6.50;3.60;;;0.40;94.10;;;;;;5070710;28;20431;-68
2020/12/30 06:20:32;;;;;;;6.28;3.40;;;0.40;94.10;;;;;;5074154;28;20433;-68
2020/12/30 06:23:06;;;;;;;8.02;4.15;;;0.50;94.10;;;;;;5071344;28;20403;-68
2020/12/30 06:25:38;;;;;;;6.55;3.20;;;0.50;94.20;;;;;;5073586;28;20473;-68
2020/12/30 06:28:12;;;;;;;6.60;3.63;;;0.40;94.00;;;;;;5070397;28;20451;-68
2020/12/30 06:30:39;;;;;;;6.85;3.25;;;0.50;94.00;;;;;;5073895;28;20526;-68
2020/12/30 06:33:07;;;;;;;6.70;3.40;;;0.50;94.10;;;;;;5069198;28;20447;-68
2020/12/30 06:35:35;;;;;;;6.43;3.35;;;0.50;94.10;;;;;;5072729;28;20442;-68
2020/12/30 06:38:23;;;;;;;6.85;3.50;;;0.50;94.10;;;;;;5071726;28;20495;-68
2020/12/30 06:41:00;;;;;;;6.60;3.20;;;0.50;94.10;;;;;;5053798;28;20404;-68
2020/12/30 06:43:46;;;;;;;5.90;3.40;;;0.60;94.00;;;;;;5052277;28;20802;-68
2020/12/30 06:46:35;;;;;;;6.18;3.38;;;0.60;94.20;;;;;;5072602;28;20882;-68
2020/12/30 06:49:04;;;;;;;8.38;4.50;;;0.60;94.10;;;;;;5069716;28;20469;-68
2020/12/30 06:51:38;;;;;;;10.70;4.75;;;0.60;94.20;;;;;;5073258;28;20423;-68
2020/12/30 06:54:05;;;;;;;8.15;4.55;;;0.60;94.10;;;;;;5067786;28;20891;-68
2020/12/30 06:56:41;;;;;;;10.83;4.93;;;0.60;94.20;;;;;;5073070;28;20403;-68
2020/12/30 06:59:26;;;;;;;7.83;3.60;;;0.60;94.20;;;;;;5073255;28;20844;-68
2020/12/30 07:02:02;;;;;;;9.20;3.65;;;0.60;94.20;;;;;;5053508;28;20464;-67
2020/12/30 07:04:32;;;;;;;10.05;4.60;;;0.60;94.20;;;;;;5052535;28;20457;-66
2020/12/30 07:06:59;;;;;;;12.00;5.25;;;0.70;94.20;;;;;;5070637;28;20399;-66
2020/12/30 07:09:36;;;;;;;9.27;3.90;;;0.70;94.30;;;;;;5071606;28;20407;-66
2020/12/30 07:12:07;;;;;;;7.85;3.80;;;0.60;94.10;;;;;;5069310;28;20437;-66
2020/12/30 07:14:39;;;;;;;12.85;7.15;;;0.70;94.20;;;;;;5072978;28;20499;-66
2020/12/30 07:17:07;;;;;;;14.20;7.10;;;0.70;94.40;;;;;;5069341;28;20511;-66
2020/12/30 07:19:37;;;;;;;16.00;9.07;;;0.80;94.30;;;;;;5072922;28;20461;-66
2020/12/30 07:22:11;;;;;;;15.95;7.90;;;0.80;94.40;;;;;;5068364;28;20856;-66
2020/12/30 07:24:55;;;;;;;11.07;6.75;;;1.10;93.80;;;;;;5072004;28;20493;-66
2020/12/30 07:27:26;;;;;;;12.10;6.30;;;1.00;93.40;;;;;;5068867;28;20414;-66
2020/12/30 07:29:53;;;;;;;10.80;5.80;;;0.90;93.80;;;;;;5072370;28;20842;-66
2020/12/30 07:32:19;;;;;;;9.27;5.10;;;0.80;94.00;;;;;;5079130;28;20398;-66
2020/12/30 07:34:52;;;;;;;8.23;5.35;;;0.90;94.20;;;;;;5092916;28;20502;-66
2020/12/30 07:37:19;;;;;;;10.13;5.90;;;1.10;93.50;;;;;;5081395;28;20473;-66
2020/12/30 07:39:48;;;;;;;10.73;6.00;;;1.00;93.50;;;;;;5055218;28;20434;-66
2020/12/30 07:42:27;;;;;;;13.13;6.07;;;1.00;93.70;;;;;;5055161;28;20412;-66
2020/12/30 07:44:55;;;;;;;11.33;6.47;;;1.10;93.60;;;;;;5072443;28;20854;-66
2020/12/30 07:47:26;;;;;;;11.20;6.07;;;1.20;93.40;;;;;;5067915;28;20432;-66
2020/12/30 07:50:03;;;;;;;12.80;6.30;;;1.00;93.40;;;;;;5072350;28;20836;-66
2020/12/30 07:52:30;;;;;;;10.68;6.03;;;0.90;93.70;;;;;;5067755;28;20416;-66
2020/12/30 07:54:57;;;;;;;17.07;11.77;;;0.90;94.00;;;;;;5068201;28;20445;-66
2020/12/30 07:57:27;;;;;;;14.05;7.95;;;0.80;94.20;;;;;;5061819;28;20471;-66
2020/12/30 07:59:55;;;;;;;15.00;8.55;;;0.80;94.20;;;;;;5066237;28;20419;-66
2020/12/30 08:02:24;;;;;;;12.20;7.97;;;0.90;94.20;;;;;;5070383;28;20412;-66
2020/12/30 08:05:00;;;;;;;16.10;10.10;;;0.90;94.20;;;;;;5066665;28;20522;-66
2020/12/30 08:07:31;;;;;;;21.05;13.02;;;0.90;94.20;;;;;;5069677;28;20756;-66
2020/12/30 08:09:58;;;;;;;19.80;13.13;;;0.90;94.20;;;;;;5066306;28;20779;-66
2020/12/30 08:12:27;;;;;;;24.38;13.13;;;0.90;94.10;;;;;;5069811;28;20580;-66
2020/12/30 08:14:53;;;;;;;35.53;17.58;;;0.90;94.30;;;;;;5066038;28;20473;-66
2020/12/30 08:17:21;;;;;;;76.68;34.78;;;1.00;94.20;;;;;;5071730;28;20412;-67
2020/12/30 08:19:50;;;;;;;55.37;27.90;;;1.00;94.00;;;;;;5067594;28;20796;-66
2020/12/30 08:22:21;;;;;;;42.05;21.50;;;1.10;93.80;;;;;;5071376;28;20451;-66
2020/12/30 08:24:58;;;;;;;26.30;13.48;;;1.10;93.60;;;;;;5066864;28;20435;-66
2020/12/30 08:27:30;;;;;;;14.33;8.00;;;1.20;93.50;;;;;;5071377;28;20419;-66
2020/12/30 08:30:00;;;;;;;20.60;10.73;;;1.30;93.20;;;;;;5067951;28;20404;-66
2020/12/30 08:32:26;;;;;;;17.80;8.45;;;1.40;93.00;;;;;;5071523;28;20466;-66
2020/12/30 08:34:55;;;;;;;14.82;6.50;;;1.50;93.10;;;;;;5067275;28;20827;-67
2020/12/30 08:37:25;;;;;;;9.05;4.68;;;1.60;92.60;;;;;;5070759;28;20432;-66
2020/12/30 08:40:11;;;;;;;11.23;4.70;;;1.90;91.90;;;;;;5071700;28;20428;-66
2020/12/30 08:42:53;;;;;;;10.75;5.15;;;2.00;91.50;;;;;;5050839;28;20425;-66
2020/12/30 08:45:45;;;;;;;16.30;6.65;;;2.10;91.40;;;;;;5048628;28;20417;-66
2020/12/30 08:48:13;;;;;;;12.35;5.13;;;2.10;91.20;;;;;;5067009;28;20477;-66
2020/12/30 08:50:43;;;;;;;9.87;5.00;;;2.00;91.60;;;;;;5066927;28;20828;-66
2020/12/30 08:53:11;;;;;;;10.55;6.57;;;2.00;91.40;;;;;;5070955;28;20791;-66
2020/12/30 08:55:38;;;;;;;19.23;9.20;;;1.90;91.60;;;;;;5070036;28;20820;-66
2020/12/30 08:58:05;;;;;;;19.70;11.15;;;1.80;92.00;;;;;;5067560;28;20508;-66
2020/12/30 09:00:35;;;;;;;15.40;7.40;;;1.70;92.50;;;;;;5070852;28;20478;-66
2020/12/30 09:03:15;;;;;;;9.90;5.50;;;1.80;92.50;;;;;;5067363;28;20404;-66
2020/12/30 09:06:01;;;;;;;10.43;4.78;;;1.90;92.10;;;;;;5069672;28;20475;-66
2020/12/30 09:08:30;;;;;;;19.45;9.07;;;2.00;91.90;;;;;;5067078;28;20403;-66
2020/12/30 09:10:58;;;;;;;17.75;9.63;;;1.90;92.10;;;;;;5069973;28;20494;-66
2020/12/30 09:13:29;;;;;;;13.07;6.97;;;1.90;92.10;;;;;;5066363;28;20509;-66
2020/12/30 09:16:04;;;;;;;13.10;5.63;;;1.90;92.30;;;;;;5069635;28;20457;-66
2020/12/30 09:18:32;;;;;;;9.38;4.15;;;2.10;92.00;;;;;;5066292;28;20408;-66
2020/12/30 09:21:00;;;;;;;9.10;4.25;;;2.30;91.40;;;;;;5070688;28;20408;-66
2020/12/30 09:23:27;;;;;;;7.22;4.10;;;2.40;91.20;;;;;;5066895;28;20489;-66
2020/12/30 09:25:55;;;;;;;7.70;3.95;;;2.20;91.30;;;;;;5059167;28;20512;-66
2020/12/30 09:28:23;;;;;;;8.80;4.40;;;2.20;91.50;;;;;;5052858;28;20481;-66
2020/12/30 09:30:54;;;;;;;8.48;4.70;;;2.20;91.50;;;;;;5070391;28;20434;-66
2020/12/30 09:33:23;;;;;;;7.77;4.60;;;2.20;91.70;;;;;;5066976;28;20480;-67
2020/12/30 09:35:53;;;;;;;9.93;5.03;;;2.50;91.00;;;;;;5070295;28;20724;-67
2020/12/30 09:38:26;;;;;;;9.30;4.35;;;2.50;91.00;;;;;;5068143;28;20415;-66
2020/12/30 09:40:54;;;;;;;6.50;3.95;;;2.60;90.60;;;;;;5050034;28;20467;-67
2020/12/30 09:43:22;;;;;;;7.15;4.15;;;2.50;90.60;;;;;;5048912;28;20913;-66
2020/12/30 09:45:57;;;;;;;8.90;3.67;;;2.40;91.00;;;;;;5066908;28;20857;-67
2020/12/30 09:48:24;;;;;;;7.35;3.92;;;2.40;91.00;;;;;;5069358;28;20423;-66
2020/12/30 09:50:52;;;;;;;6.35;3.60;;;2.40;91.20;;;;;;5066781;28;20407;-67
2020/12/30 09:53:20;;;;;;;7.38;3.40;;;2.50;91.30;;;;;;5070204;28;20473;-67
2020/12/30 09:55:48;;;;;;;27.52;12.18;;;2.80;90.70;;;;;;5065804;28;20443;-67
2020/12/30 09:58:15;;;;;;;26.77;12.30;;;2.80;90.40;;;;;;5069134;28;20435;-67
2020/12/30 10:00:42;;;;;;;9.32;4.63;;;2.70;90.50;;;;;;5066642;28;20465;-66
2020/12/30 10:03:08;;;;;;;9.30;4.00;;;2.80;90.60;;;;;;5069121;28;20430;-66
2020/12/30 10:05:35;;;;;;;9.52;3.63;;;3.10;89.70;;;;;;5066579;28;20776;-67
2020/12/30 10:08:01;;;;;;;7.70;3.50;;;3.10;90.00;;;;;;5069802;28;20439;-67
2020/12/30 10:10:28;;;;;;;7.17;4.10;;;3.20;90.10;;;;;;5066825;28;20804;-67
2020/12/30 10:12:55;;;;;;;8.38;4.70;;;3.20;89.70;;;;;;5069794;28;20772;-67
2020/12/30 10:15:21;;;;;;;9.32;4.43;;;3.40;90.10;;;;;;5067874;28;20569;-66
2020/12/30 10:17:50;;;;;;;10.13;5.80;;;3.80;87.80;;;;;;5068869;28;20412;-67
2020/12/30 10:20:16;;;;;;;12.30;5.78;;;4.10;85.40;;;;;;5069361;28;20407;-67
2020/12/30 10:22:43;;;;;;;10.57;5.00;;;4.20;85.50;;;;;;5066909;28;20485;-67
2020/12/30 10:25:12;;;;;;;8.70;4.20;;;4.60;83.90;;;;;;5069053;28;20584;-67
2020/12/30 10:27:45;;;;;;;5.72;3.45;;;4.70;84.20;;;;;;5065669;28;20415;-67
2020/12/30 10:30:11;;;;;;;6.82;3.00;;;4.90;82.10;;;;;;5069212;28;20391;-67
2020/12/30 10:32:41;;;;;;;5.60;3.30;;;5.00;81.80;;;;;;5066645;28;20852;-67
2020/12/30 10:35:08;;;;;;;6.15;2.80;;;5.10;81.00;;;;;;5069760;28;20443;-67
2020/12/30 10:37:37;;;;;;;5.68;2.70;;;5.20;80.70;;;;;;5066092;28;20504;-68
2020/12/30 10:40:04;;;;;;;4.63;2.75;;;5.20;80.60;;;;;;5069976;28;20403;-67
2020/12/30 10:42:31;;;;;;;5.18;3.20;;;5.10;80.00;;;;;;5066367;28;20419;-67
2020/12/30 10:44:57;;;;;;;6.57;3.30;;;5.20;80.20;;;;;;5071812;28;20480;-66
2020/12/30 10:47:24;;;;;;;5.68;3.33;;;5.40;80.00;;;;;;5070101;28;20399;-67
2020/12/30 10:49:50;;;;;;;6.13;3.00;;;5.60;80.30;;;;;;5073500;28;20407;-67
2020/12/30 10:52:16;;;;;;;5.72;2.80;;;6.20;77.70;;;;;;5073596;28;20403;-67
2020/12/30 10:54:46;;;;;;;6.65;3.17;;;7.00;76.10;;;;;;5070043;28;20494;-67
2020/12/30 10:57:12;;;;;;;7.65;2.92;;;8.40;69.50;;;;;;5073696;28;20396;-67
2020/12/30 10:59:38;;;;;;;5.07;2.60;;;9.60;66.10;;;;;;5069761;28;20526;-67
2020/12/30 11:02:07;;;;;;;8.07;4.78;;;10.90;60.70;;;;;;5072995;28;20457;-67
2020/12/30 11:04:34;;;;;;;4.80;3.00;;;11.80;59.30;;;;;;5069504;28;20792;-67
2020/12/30 11:07:02;;;;;;;6.07;3.05;;;12.20;55.10;;;;;;5073040;28;20429;-67
2020/12/30 11:09:29;;;;;;;4.40;2.67;;;11.40;55.90;;;;;;5069841;28;20407;-67
2020/12/30 11:11:55;;;;;;;3.25;2.22;;;10.60;59.80;;;;;;5071941;28;20454;-67
2020/12/30 11:14:21;;;;;;;3.55;2.15;;;10.20;61.40;;;;;;5069776;28;20404;-67
2020/12/30 11:16:51;;;;;;;5.90;2.42;;;10.50;60.00;;;;;;5073051;28;20441;-67
2020/12/30 11:19:17;;;;;;;5.15;2.63;;;10.40;59.70;;;;;;5069638;28;20424;-67
2020/12/30 11:21:54;;;;;;;4.45;2.28;;;9.70;61.90;;;;;;5072300;28;20454;-67
2020/12/30 11:24:21;;;;;;;6.80;2.60;;;9.90;61.70;;;;;;5068657;28;20485;-67
2020/12/30 11:26:48;;;;;;;4.38;2.22;;;9.90;61.40;;;;;;5072982;28;20468;-67
2020/12/30 11:29:17;;;;;;;4.72;2.55;;;10.00;61.40;;;;;;5072647;28;20443;-67
2020/12/30 11:31:44;;;;;;;5.68;2.40;;;10.10;61.00;;;;;;5069204;28;20915;-67
2020/12/30 11:34:13;;;;;;;4.88;2.60;;;10.10;61.40;;;;;;5071923;28;20439;-67
2020/12/30 11:36:42;;;;;;;7.93;3.40;;;10.20;62.40;;;;;;5069155;28;20491;-67
2020/12/30 11:39:08;;;;;;;8.05;4.35;;;10.10;61.00;;;;;;5072639;28;20404;-67
2020/12/30 11:41:34;;;;;;;5.72;3.38;;;9.90;61.30;;;;;;5069031;28;20431;-67
2020/12/30 11:44:03;;;;;;;8.43;5.68;;;9.40;62.40;;;;;;5072207;28;20474;-67
2020/12/30 11:46:29;;;;;;;6.80;3.72;;;9.10;64.30;;;;;;5068092;28;20457;-67
2020/12/30 11:48:58;;;;;;;6.93;3.00;;;9.40;63.70;;;;;;5072247;28;20434;-67
2020/12/30 11:51:25;;;;;;;5.18;2.95;;;9.30;63.40;;;;;;5069478;28;20420;-67
2020/12/30 11:53:51;;;;;;;6.18;2.92;;;9.10;64.20;;;;;;5072231;28;20457;-68
2020/12/30 11:56:27;;;;;;;5.30;2.60;;;9.00;65.00;;;;;;5068193;28;20408;-67
2020/12/30 11:58:54;;;;;;;5.88;2.92;;;9.00;65.70;;;;;;5072357;28;20490;-67
2020/12/30 12:01:20;;;;;;;6.30;3.10;;;9.20;65.40;;;;;;5070876;28;20476;-67
2020/12/30 12:03:46;;;;;;;6.25;3.55;;;9.30;65.00;;;;;;5090087;28;20422;-67
2020/12/30 12:06:13;;;;;;;7.25;3.67;;;9.40;64.60;;;;;;5091175;28;20394;-67
2020/12/30 12:08:40;;;;;;;5.50;3.15;;;9.50;63.30;;;;;;5070528;28;20411;-67
2020/12/30 12:11:06;;;;;;;7.78;2.80;;;9.50;64.60;;;;;;5071958;28;20781;-67
2020/12/30 12:13:33;;;;;;;5.35;2.83;;;9.60;64.70;;;;;;5069337;28;20416;-67
2020/12/30 12:15:59;;;;;;;5.95;3.13;;;9.80;64.70;;;;;;5072200;28;20408;-67
2020/12/30 12:18:26;;;;;;;7.18;3.22;;;10.10;64.60;;;;;;5067411;28;20404;-67
2020/12/30 12:20:52;;;;;;;6.30;3.50;;;10.20;62.10;;;;;;5071495;28;20848;-67
2020/12/30 12:23:21;;;;;;;6.03;3.30;;;10.00;62.40;;;;;;5068657;28;20517;-67
2020/12/30 12:25:48;;;;;;;6.57;3.42;;;9.90;62.80;;;;;;5071280;28;20459;-67
2020/12/30 12:28:43;;;;;;;7.38;3.20;;;9.70;63.30;;;;;;5068316;28;20415;-67
2020/12/30 12:31:17;;;;;;;5.37;3.43;;;9.50;63.80;;;;;;5070656;28;20729;-67
2020/12/30 12:33:43;;;;;;;6.63;3.53;;;9.30;64.00;;;;;;5067440;28;20435;-67
2020/12/30 12:36:11;;;;;;;7.72;3.55;;;9.20;63.90;;;;;;5071125;28;20411;-67
2020/12/30 12:38:37;;;;;;;6.03;3.58;;;9.00;65.60;;;;;;5067089;28;20605;-67
2020/12/30 12:41:04;;;;;;;6.20;3.15;;;8.90;65.80;;;;;;5071462;28;20411;-67
2020/12/30 12:43:32;;;;;;;8.52;3.92;;;8.80;65.80;;;;;;5071096;28;20470;-67
2020/12/30 12:46:12;;;;;;;8.90;3.50;;;8.70;65.90;;;;;;5068047;28;20407;-67
2020/12/30 12:48:38;;;;;;;9.00;4.07;;;8.50;67.10;;;;;;5071100;28;20400;-67
2020/12/30 12:51:07;;;;;;;8.13;4.20;;;8.50;67.10;;;;;;5067432;28;20534;-67
2020/12/30 12:53:33;;;;;;;8.40;3.90;;;8.30;67.40;;;;;;5071167;28;20577;-67
2020/12/30 12:55:59;;;;;;;8.40;4.18;;;8.00;67.90;;;;;;5066615;28;20404;-67
2020/12/30 12:58:28;;;;;;;9.52;3.83;;;8.00;69.50;;;;;;5069943;28;20852;-67